Deo Volente — PHFJ — position and weather

sailwx.info

Track history (hours):
 
Tides and Currents Weather Stations Pressure Air Temp Water Temp Dewpoint Dewpoint Depression Visibility Wind Speed Wind Dir Waves Ship Positions

Deo Volente

Last reported at 2017-Jul-20 03:00 UTC. Time now 2017-Jul-21 06:37 UTC.
Position N 37°16' E 020°50'.

Length 105 m; draft 5.1 m.

Type: Cargo ship. MMSI: 246518000.

Date/timePositionNaut miles runAvg speedWind from/ knotsBaromVisibWave heightAir tempDewpointWater temp
2017-Jul-20 03:00N 37°16' E 020°50'16712.1
2017-Jul-19 13:15N 37°43' E 024°17'  
2017-Jul-16 11:14N 35°33' E 028°58'315.4
2017-Jul-16 11:00N 35°31' E 029°01'5916.6
2017-Jul-16 07:26N 35°14' E 030°11'717.1
2017-Jul-16 07:00N 35°12' E 030°19'917.2
2017-Jul-16 06:30N 35°09' E 030°29'917.1
2017-Jul-16 06:00N 35°07' E 030°39'1916.9
2017-Jul-16 04:52N 35°01' E 031°02'617.1
2017-Jul-16 04:30N 34°59' E 031°09'917.0
2017-Jul-16 04:00N 34°56' E 031°19'816.9
2017-Jul-16 03:30N 34°54' E 031°29'816.6
2017-Jul-16 03:01N 34°52' E 031°38'816.4
2017-Jul-16 02:31N 34°49' E 031°48'816.5
2017-Jul-16 02:00N 34°46' E 031°57'816.6
2017-Jul-16 01:30N 34°44' E 032°07'816.9
2017-Jul-16 01:00N 34°42' E 032°17'816.6
2017-Jul-16 00:30N 34°39' E 032°27'816.1
2017-Jul-16 00:00N 34°37' E 032°36'815.9
2017-Jul-15 23:30N 34°34' E 032°45'815.6
2017-Jul-15 23:00N 34°32' E 032°54'815.6
2017-Jul-15 22:30N 34°32' E 033°04'713.2
2017-Jul-15 22:00N 34°39' E 033°03'1 2.9
2017-Jul-15 21:31N 34°39' E 033°01'0 0.0
2017-Jul-15 21:01N 34°39' E 033°01'0 0.0
2017-Jul-15 20:30N 34°39' E 033°01'0 0.0
2017-Jul-15 20:01N 34°39' E 033°01'0 0.0
2017-Jul-15 19:31N 34°39' E 033°01'0 0.0
2017-Jul-15 19:01N 34°39' E 033°01'0 0.0
2017-Jul-15 18:30N 34°39' E 033°01'0 0.3
2017-Jul-15 18:01N 34°39' E 033°01'3 6.2
2017-Jul-15 17:30N 34°37' E 033°04'815.4
2017-Jul-15 17:00N 34°30' E 033°03'916.9
2017-Jul-15 16:26N 34°22' E 032°57'716.9
2017-Jul-15 16:00N 34°16' E 032°51'817.0
2017-Jul-15 15:30N 34°09' E 032°45'917.2
2017-Jul-15 15:00N 34°03' E 032°38'1717.4
2017-Jul-15 14:00N 33°49' E 032°25'917.3
2017-Jul-15 13:29N 33°42' E 032°18'817.2
2017-Jul-15 13:00N 33°36' E 032°12'917.2
2017-Jul-15 12:29N 33°29' E 032°05'817.3
2017-Jul-15 12:00N 33°23' E 031°59'917.5
2017-Jul-15 11:30N 33°16' E 031°52'817.0
2017-Jul-15 11:00N 33°10' E 031°45'816.9
2017-Jul-15 10:30N 33°03' E 031°39'1116.9
2017-Jul-15 09:53N 32°55' E 031°31'716.9
2017-Jul-15 09:30N 32°50' E 031°26'816.9
2017-Jul-15 09:00N 32°44' E 031°20'917.0
2017-Jul-15 08:31N 32°37' E 031°14'917.2
2017-Jul-15 07:59N 32°30' E 031°07'817.2
2017-Jul-15 07:31N 32°24' E 031°01'917.2
2017-Jul-15 07:00N 32°17' E 030°55'917.1
2017-Jul-15 06:30N 32°10' E 030°48'917.3
2017-Jul-15 05:57N 32°03' E 030°41'1617.3
2017-Jul-15 05:01N 31°50' E 030°29'017.2
2017-Jul-15 05:00N 31°50' E 030°29'917.3
2017-Jul-15 04:30N 31°43' E 030°23'1616.9
2017-Jul-15 03:34N 31°32' E 030°10'1217.1
2017-Jul-15 02:53N 31°24' E 030°00'19 8.6
2017-Jul-15 00:44N 31°08' E 029°48'0 0.0
2017-Jul-15 00:30N 31°08' E 029°48'0 0.0
2017-Jul-14 22:30N 31°08' E 029°48'0 0.0
2017-Jul-14 18:18N 31°08' E 029°48'0 0.0
2017-Jul-14 16:24N 31°08' E 029°48'0 0.0
2017-Jul-14 16:00N 31°08' E 029°48'0 0.0
2017-Jul-14 15:29N 31°08' E 029°48'0 0.0
2017-Jul-14 07:33N 31°08' E 029°48'0 0.1
2017-Jul-14 07:25N 31°08' E 029°48'0 0.0
2017-Jul-14 06:59N 31°08' E 029°48'0 0.0
2017-Jul-14 02:22N 31°08' E 029°48'1 1.2
2017-Jul-14 01:33N 31°09' E 029°48'41615.9
2017-Jul-12 23:22N 34°39' E 022°41'13816.5
2017-Jul-12 14:58N 35°47' E 020°14'14316.7
2017-Jul-12 06:26N 36°59' E 017°41'1016.5
2017-Jul-12 05:48N 37°04' E 017°29'516.5
2017-Jul-12 05:30N 37°07' E 017°24'916.5
2017-Jul-12 04:57N 37°11' E 017°14'1416.3
2017-Jul-12 04:07N 37°18' E 016°59'216.3
2017-Jul-12 04:00N 37°19' E 016°57'2016.3
2017-Jul-12 02:46N 37°30' E 016°36'4316.1
2017-Jul-12 00:06N 37°51' E 015°48'115.8
2017-Jul-12 00:00N 37°52' E 015°47'815.7
2017-Jul-11 23:30N 37°56' E 015°38'815.7
2017-Jul-11 23:00N 38°03' E 015°35'815.9
2017-Jul-11 22:30N 38°11' E 015°36'714.2
2017-Jul-11 21:59N 38°18' E 015°40'816.7
2017-Jul-11 21:30N 38°25' E 015°35'816.5
2017-Jul-11 21:00N 38°32' E 015°31'816.5
2017-Jul-11 20:30N 38°40' E 015°26'816.5
2017-Jul-11 20:00N 38°47' E 015°21'816.2
2017-Jul-11 19:30N 38°54' E 015°16'11216.1
2017-Jul-11 12:31N 40°35' E 014°10'015.4
2017-Jul-11 12:30N 40°35' E 014°10'715.2
2017-Jul-11 12:00N 40°42' E 014°14'714.6
2017-Jul-11 11:30N 40°49' E 014°17'1 0.1
2017-Jul-10 19:20N 40°50' E 014°17'0 0.0
2017-Jul-10 19:01N 40°50' E 014°17'0 0.0
2017-Jul-10 18:31N 40°50' E 014°17'0 0.0
2017-Jul-10 18:01N 40°50' E 014°17'0 0.0
2017-Jul-10 17:30N 40°50' E 014°17'0 0.0
2017-Jul-10 17:00N 40°50' E 014°17'0 0.0
2017-Jul-10 16:30N 40°50' E 014°17'0 0.0
2017-Jul-10 16:00N 40°50' E 014°17'0 0.0
2017-Jul-10 15:31N 40°50' E 014°17'0 0.0
2017-Jul-10 15:00N 40°50' E 014°17'0 0.0
2017-Jul-10 14:31N 40°50' E 014°17'0 0.0
2017-Jul-10 14:01N 40°50' E 014°17'0 0.0
2017-Jul-10 13:30N 40°50' E 014°17'0 0.0
2017-Jul-10 13:00N 40°50' E 014°17'0 0.0
2017-Jul-10 09:49N 40°50' E 014°17'0 0.0
2017-Jul-10 09:30N 40°50' E 014°17'0 0.0
2017-Jul-10 09:00N 40°50' E 014°17'0 0.0
2017-Jul-10 08:30N 40°50' E 014°17'0 0.0
2017-Jul-10 08:00N 40°50' E 014°17'0 0.0
2017-Jul-10 07:30N 40°50' E 014°17'0 0.0
2017-Jul-10 07:00N 40°50' E 014°17'0 0.0
2017-Jul-10 06:31N 40°50' E 014°17'0 0.0
2017-Jul-10 06:01N 40°50' E 014°17'0 0.0
2017-Jul-10 05:31N 40°50' E 014°17'0 0.0
2017-Jul-10 05:01N 40°50' E 014°17'0 0.0
2017-Jul-10 04:31N 40°50' E 014°17'0 0.0
2017-Jul-10 04:01N 40°50' E 014°17'0 0.0
2017-Jul-10 03:31N 40°50' E 014°17'  
Track history (hours):
 
Tides and Currents Weather Stations Pressure Air Temp Water Temp Dewpoint Dewpoint Depression Visibility Wind Speed Wind Dir Waves Ship Positions

Deo Volente

Last reported at 2017-Jul-20 03:00 UTC. Time now 2017-Jul-21 06:37 UTC.
Position N 37°16' E 020°50'.

Length 105 m; draft 5.1 m.

Type: Cargo ship. MMSI: 246518000.

Date/timePositionNaut miles runAvg speedWind from/ knotsBaromVisibWave heightAir tempDewpointWater temp
2017-Jul-20 03:00N 37°16' E 020°50'16712.1
2017-Jul-19 13:15N 37°43' E 024°17'  
2017-Jul-16 11:14N 35°33' E 028°58'315.4
2017-Jul-16 11:00N 35°31' E 029°01'5916.6
2017-Jul-16 07:26N 35°14' E 030°11'717.1
2017-Jul-16 07:00N 35°12' E 030°19'917.2
2017-Jul-16 06:30N 35°09' E 030°29'917.1
2017-Jul-16 06:00N 35°07' E 030°39'1916.9
2017-Jul-16 04:52N 35°01' E 031°02'617.1
2017-Jul-16 04:30N 34°59' E 031°09'917.0
2017-Jul-16 04:00N 34°56' E 031°19'816.9
2017-Jul-16 03:30N 34°54' E 031°29'816.6
2017-Jul-16 03:01N 34°52' E 031°38'816.4
2017-Jul-16 02:31N 34°49' E 031°48'816.5
2017-Jul-16 02:00N 34°46' E 031°57'816.6
2017-Jul-16 01:30N 34°44' E 032°07'816.9
2017-Jul-16 01:00N 34°42' E 032°17'816.6
2017-Jul-16 00:30N 34°39' E 032°27'816.1
2017-Jul-16 00:00N 34°37' E 032°36'815.9
2017-Jul-15 23:30N 34°34' E 032°45'815.6
2017-Jul-15 23:00N 34°32' E 032°54'815.6
2017-Jul-15 22:30N 34°32' E 033°04'713.2
2017-Jul-15 22:00N 34°39' E 033°03'1 2.9
2017-Jul-15 21:31N 34°39' E 033°01'0 0.0
2017-Jul-15 21:01N 34°39' E 033°01'0 0.0
2017-Jul-15 20:30N 34°39' E 033°01'0 0.0
2017-Jul-15 20:01N 34°39' E 033°01'0 0.0
2017-Jul-15 19:31N 34°39' E 033°01'0 0.0
2017-Jul-15 19:01N 34°39' E 033°01'0 0.0
2017-Jul-15 18:30N 34°39' E 033°01'0 0.3
2017-Jul-15 18:01N 34°39' E 033°01'3 6.2
2017-Jul-15 17:30N 34°37' E 033°04'815.4
2017-Jul-15 17:00N 34°30' E 033°03'916.9
2017-Jul-15 16:26N 34°22' E 032°57'716.9
2017-Jul-15 16:00N 34°16' E 032°51'817.0
2017-Jul-15 15:30N 34°09' E 032°45'917.2
2017-Jul-15 15:00N 34°03' E 032°38'1717.4
2017-Jul-15 14:00N 33°49' E 032°25'917.3
2017-Jul-15 13:29N 33°42' E 032°18'817.2
2017-Jul-15 13:00N 33°36' E 032°12'917.2
2017-Jul-15 12:29N 33°29' E 032°05'817.3
2017-Jul-15 12:00N 33°23' E 031°59'917.5
2017-Jul-15 11:30N 33°16' E 031°52'817.0
2017-Jul-15 11:00N 33°10' E 031°45'816.9
2017-Jul-15 10:30N 33°03' E 031°39'1116.9
2017-Jul-15 09:53N 32°55' E 031°31'716.9
2017-Jul-15 09:30N 32°50' E 031°26'816.9
2017-Jul-15 09:00N 32°44' E 031°20'917.0
2017-Jul-15 08:31N 32°37' E 031°14'917.2
2017-Jul-15 07:59N 32°30' E 031°07'817.2
2017-Jul-15 07:31N 32°24' E 031°01'917.2
2017-Jul-15 07:00N 32°17' E 030°55'917.1
2017-Jul-15 06:30N 32°10' E 030°48'917.3
2017-Jul-15 05:57N 32°03' E 030°41'1617.3
2017-Jul-15 05:01N 31°50' E 030°29'017.2
2017-Jul-15 05:00N 31°50' E 030°29'917.3
2017-Jul-15 04:30N 31°43' E 030°23'1616.9
2017-Jul-15 03:34N 31°32' E 030°10'1217.1
2017-Jul-15 02:53N 31°24' E 030°00'19 8.6
2017-Jul-15 00:44N 31°08' E 029°48'0 0.0
2017-Jul-15 00:30N 31°08' E 029°48'0 0.0
2017-Jul-14 22:30N 31°08' E 029°48'0 0.0
2017-Jul-14 18:18N 31°08' E 029°48'0 0.0
2017-Jul-14 16:24N 31°08' E 029°48'0 0.0
2017-Jul-14 16:00N 31°08' E 029°48'0 0.0
2017-Jul-14 15:29N 31°08' E 029°48'0 0.0
2017-Jul-14 07:33N 31°08' E 029°48'0 0.1
2017-Jul-14 07:25N 31°08' E 029°48'0 0.0
2017-Jul-14 06:59N 31°08' E 029°48'0 0.0
2017-Jul-14 02:22N 31°08' E 029°48'1 1.2
2017-Jul-14 01:33N 31°09' E 029°48'41615.9
2017-Jul-12 23:22N 34°39' E 022°41'13816.5
2017-Jul-12 14:58N 35°47' E 020°14'14316.7
2017-Jul-12 06:26N 36°59' E 017°41'1016.5
2017-Jul-12 05:48N 37°04' E 017°29'516.5
2017-Jul-12 05:30N 37°07' E 017°24'916.5
2017-Jul-12 04:57N 37°11' E 017°14'1416.3
2017-Jul-12 04:07N 37°18' E 016°59'216.3
2017-Jul-12 04:00N 37°19' E 016°57'2016.3
2017-Jul-12 02:46N 37°30' E 016°36'4316.1
2017-Jul-12 00:06N 37°51' E 015°48'115.8
2017-Jul-12 00:00N 37°52' E 015°47'815.7
2017-Jul-11 23:30N 37°56' E 015°38'815.7
2017-Jul-11 23:00N 38°03' E 015°35'815.9
2017-Jul-11 22:30N 38°11' E 015°36'714.2
2017-Jul-11 21:59N 38°18' E 015°40'816.7
2017-Jul-11 21:30N 38°25' E 015°35'816.5
2017-Jul-11 21:00N 38°32' E 015°31'816.5
2017-Jul-11 20:30N 38°40' E 015°26'816.5
2017-Jul-11 20:00N 38°47' E 015°21'816.2
2017-Jul-11 19:30N 38°54' E 015°16'11216.1
2017-Jul-11 12:31N 40°35' E 014°10'015.4
2017-Jul-11 12:30N 40°35' E 014°10'715.2
2017-Jul-11 12:00N 40°42' E 014°14'714.6
2017-Jul-11 11:30N 40°49' E 014°17'1 0.1
2017-Jul-10 19:20N 40°50' E 014°17'0 0.0
2017-Jul-10 19:01N 40°50' E 014°17'0 0.0
2017-Jul-10 18:31N 40°50' E 014°17'0 0.0
2017-Jul-10 18:01N 40°50' E 014°17'0 0.0
2017-Jul-10 17:30N 40°50' E 014°17'0 0.0
2017-Jul-10 17:00N 40°50' E 014°17'0 0.0
2017-Jul-10 16:30N 40°50' E 014°17'0 0.0
2017-Jul-10 16:00N 40°50' E 014°17'0 0.0
2017-Jul-10 15:31N 40°50' E 014°17'0 0.0
2017-Jul-10 15:00N 40°50' E 014°17'0 0.0
2017-Jul-10 14:31N 40°50' E 014°17'0 0.0
2017-Jul-10 14:01N 40°50' E 014°17'0 0.0
2017-Jul-10 13:30N 40°50' E 014°17'0 0.0
2017-Jul-10 13:00N 40°50' E 014°17'0 0.0
2017-Jul-10 09:49N 40°50' E 014°17'0 0.0
2017-Jul-10 09:30N 40°50' E 014°17'0 0.0
2017-Jul-10 09:00N 40°50' E 014°17'0 0.0
2017-Jul-10 08:30N 40°50' E 014°17'0 0.0
2017-Jul-10 08:00N 40°50' E 014°17'0 0.0
2017-Jul-10 07:30N 40°50' E 014°17'0 0.0
2017-Jul-10 07:00N 40°50' E 014°17'0 0.0
2017-Jul-10 06:31N 40°50' E 014°17'0 0.0
2017-Jul-10 06:01N 40°50' E 014°17'0 0.0
2017-Jul-10 05:31N 40°50' E 014°17'0 0.0
2017-Jul-10 05:01N 40°50' E 014°17'0 0.0
2017-Jul-10 04:31N 40°50' E 014°17'0 0.0
2017-Jul-10 04:01N 40°50' E 014°17'0 0.0
2017-Jul-10 03:31N 40°50' E 014°17'  

Dump ship's entire track history